createdAt,value
2022-10-29T00:38:46.857Z,5.17
2022-10-29T00:41:19.674Z,5.10
2022-10-29T00:43:51.057Z,4.87
2022-10-29T00:46:34.720Z,4.77
2022-10-29T00:49:04.093Z,4.90
2022-10-29T00:51:33.911Z,5.13
2022-10-29T00:54:08.779Z,5.10
2022-10-29T00:56:43.997Z,4.60
2022-10-29T00:59:13.207Z,5.27
2022-10-29T01:01:43.897Z,5.53
2022-10-29T01:04:12.806Z,5.03
2022-10-29T01:06:47.382Z,4.67
2022-10-29T01:09:19.420Z,5.57
2022-10-29T01:12:19.749Z,5.13
2022-10-29T01:15:46.724Z,5.10
2022-10-29T01:18:23.724Z,4.70
2022-10-29T01:21:24.764Z,5.57
2022-10-29T01:24:26.855Z,4.50
2022-10-29T01:27:16.521Z,4.73
2022-10-29T01:30:07.127Z,5.27
2022-10-29T01:51:20.809Z,4.57
2022-10-29T01:53:49.827Z,5.40
2022-10-29T01:56:20.250Z,5.20
2022-10-29T01:58:54.826Z,4.67
2022-10-29T02:01:29.718Z,5.03
2022-10-29T02:04:16.449Z,4.43
2022-10-29T02:06:51.896Z,4.70
2022-10-29T02:09:36.360Z,4.20
2022-10-29T02:12:22.281Z,4.13
2022-10-29T02:14:59.896Z,4.93
2022-10-29T02:17:28.153Z,4.90
2022-10-29T02:19:56.437Z,4.27
2022-10-29T02:22:24.999Z,4.53
2022-10-29T02:24:53.375Z,4.73
2022-10-29T02:27:24.196Z,3.50
2022-10-29T02:29:54.554Z,4.33
2022-10-29T02:32:22.687Z,4.30
2022-10-29T02:37:35.755Z,4.40
2022-10-29T02:40:05.351Z,4.30
2022-10-29T02:42:33.456Z,3.57
2022-10-29T02:45:01.730Z,4.10
2022-10-29T02:47:29.914Z,4.03
2022-10-29T02:49:59.959Z,4.50
2022-10-29T02:52:29.463Z,4.23
2022-10-29T02:54:58.330Z,3.57
2022-10-29T02:57:26.588Z,3.97
2022-10-29T02:59:57.511Z,3.37
2022-10-29T03:02:27.027Z,4.10
2022-10-29T03:04:55.780Z,3.87
2022-10-29T03:07:25.670Z,4.03
2022-10-29T03:09:54.185Z,3.50
2022-10-29T03:12:23.250Z,3.50
2022-10-29T03:14:53.866Z,3.43
2022-10-29T04:27:31.380Z,4.27
2022-10-29T04:28:41.497Z,3.00
2022-10-29T04:30:27.002Z,3.63
2022-10-29T04:32:59.570Z,3.53
2022-10-29T04:35:29.403Z,3.20
2022-10-29T04:37:57.728Z,2.77
2022-10-29T04:40:26.507Z,3.57
2022-10-29T04:42:55.152Z,3.80
2022-10-29T04:45:24.017Z,3.23
2022-10-29T04:48:01.099Z,3.23
2022-10-29T04:50:30.423Z,3.73
2022-10-29T04:53:03.048Z,3.40
2022-10-29T04:55:32.262Z,2.90
2022-10-29T04:58:00.433Z,2.70
2022-10-29T05:00:31.395Z,3.10
2022-10-29T05:03:00.805Z,3.23
2022-10-29T05:05:29.191Z,3.10
2022-10-29T05:07:59.804Z,2.83
2022-10-29T05:10:30.314Z,2.87
2022-10-29T05:13:05.533Z,3.00
2022-10-29T05:15:35.143Z,2.97
2022-10-29T05:18:07.258Z,3.30
2022-10-29T05:20:35.580Z,3.20
2022-10-29T05:23:06.701Z,3.37
2022-10-29T05:25:37.572Z,4.00
2022-10-29T05:31:01.048Z,2.90
2022-10-29T05:33:29.789Z,2.87
2022-10-29T05:36:05.481Z,2.90
2022-10-29T05:38:35.359Z,3.10
2022-10-29T05:41:04.555Z,3.40
2022-10-29T05:43:32.658Z,3.73
2022-10-29T05:46:03.646Z,3.13
2022-10-29T05:48:32.317Z,3.33
2022-10-29T05:51:00.471Z,3.07
2022-10-29T05:53:28.675Z,3.20
2022-10-29T05:55:59.613Z,4.17
2022-10-29T05:58:28.004Z,3.87
2022-10-29T06:00:56.463Z,3.90
2022-10-29T06:03:26.608Z,3.80
2022-10-29T06:05:55.931Z,4.00
2022-10-29T06:08:24.322Z,3.33
2022-10-29T06:10:54.123Z,4.00
2022-10-29T06:13:23.364Z,3.57
2022-10-29T06:15:56.711Z,4.23
2022-10-29T06:18:25.092Z,4.57
2022-10-29T06:20:53.394Z,4.77
2022-10-29T06:23:21.359Z,5.33
2022-10-29T06:25:51.745Z,5.00
2022-10-29T06:28:20.264Z,4.77
2022-10-29T06:30:49.947Z,4.93
2022-10-29T06:33:19.484Z,4.40
2022-10-29T06:35:48.193Z,4.47
2022-10-29T06:38:16.732Z,5.10
2022-10-29T06:40:56.053Z,4.97
2022-10-29T06:43:24.108Z,4.80
2022-10-29T06:45:52.222Z,4.90
2022-10-29T06:48:22.331Z,5.60
2022-10-29T06:50:51.277Z,6.07
2022-10-29T06:53:19.493Z,5.77
2022-10-29T06:55:47.440Z,6.27
2022-10-29T06:58:55.313Z,6.63
2022-10-29T07:01:25.481Z,6.77
2022-10-29T07:03:56.293Z,5.93
2022-10-29T07:06:24.495Z,5.17
2022-10-29T07:08:52.421Z,5.17
2022-10-29T07:11:20.630Z,5.17
2022-10-29T07:13:48.593Z,5.63
2022-10-29T07:16:16.765Z,5.33
2022-10-29T07:18:45.658Z,5.37
2022-10-29T07:21:14.989Z,5.63
2022-10-29T07:23:43.335Z,4.83
2022-10-29T07:26:11.746Z,5.47
2022-10-29T07:28:40.107Z,5.63
2022-10-29T07:31:08.517Z,5.20
2022-10-29T07:33:36.837Z,4.77
2022-10-29T07:36:05.214Z,4.60
2022-10-29T07:38:33.903Z,4.80
2022-10-29T07:41:02.436Z,4.37
2022-10-29T07:43:30.529Z,4.53
2022-10-29T07:45:58.799Z,4.17
2022-10-29T07:48:27.342Z,4.43
2022-10-29T07:50:58.355Z,3.77
2022-10-29T07:53:27.004Z,4.07
2022-10-29T07:55:55.845Z,4.00
2022-10-29T07:58:25.053Z,4.17
2022-10-29T08:00:53.969Z,4.13
2022-10-29T08:03:22.211Z,3.83
2022-10-29T08:05:55.433Z,3.80
2022-10-29T08:08:25.344Z,3.60
2022-10-29T08:10:53.476Z,3.90
2022-10-29T08:13:21.612Z,4.57
2022-10-29T08:15:51.723Z,4.33
2022-10-29T08:18:20.661Z,3.80
2022-10-29T08:20:58.886Z,3.93
2022-10-29T08:23:26.593Z,3.90
2022-10-29T08:25:54.227Z,4.37
2022-10-29T08:28:25.555Z,3.87
2022-10-29T08:30:53.435Z,4.20
2022-10-29T08:33:21.070Z,3.93
2022-10-29T08:35:49.244Z,3.93
2022-10-29T08:38:16.996Z,3.60
2022-10-29T08:41:10.477Z,3.40
2022-10-29T08:43:56.603Z,3.80
2022-10-29T08:46:40.885Z,3.47
2022-10-29T08:49:17.522Z,3.73
2022-10-29T08:52:04.399Z,4.33
2022-10-29T08:54:36.325Z,4.40
2022-10-29T08:57:14.130Z,4.67
2022-10-29T09:00:02.464Z,4.43
2022-10-29T09:02:31.278Z,4.70
2022-10-29T09:04:59.616Z,4.97
2022-10-29T09:07:59.660Z,4.90
2022-10-29T09:10:38.728Z,5.53
2022-10-29T09:13:41.222Z,5.17
2022-10-29T09:16:14.618Z,5.90
2022-10-29T09:19:11.483Z,5.40
2022-10-29T09:21:57.150Z,6.60
2022-10-29T09:24:36.376Z,7.03
2022-10-29T09:27:09.674Z,6.37
2022-10-29T09:30:11.322Z,6.00
2022-10-29T09:32:52.740Z,6.63
2022-10-29T09:35:22.673Z,6.67
2022-10-29T09:38:00.002Z,6.97
2022-10-29T09:40:38.537Z,7.10
2022-10-29T09:43:18.228Z,6.90
2022-10-29T09:45:56.189Z,7.17
2022-10-29T09:48:50.768Z,7.30
2022-10-29T09:51:26.799Z,7.23
2022-10-29T09:53:55.676Z,7.60
2022-10-29T09:56:23.584Z,8.37
2022-10-29T09:59:01.686Z,8.30
2022-10-29T10:01:29.766Z,8.53
2022-10-29T10:04:03.383Z,8.00
2022-10-29T10:06:55.842Z,8.90
2022-10-29T10:09:24.029Z,8.47
2022-10-29T10:11:55.250Z,7.27
2022-10-29T10:14:25.880Z,7.87
2022-10-29T10:17:01.588Z,8.13
2022-10-29T10:19:32.183Z,8.57
2022-10-29T10:22:05.862Z,7.93
2022-10-29T10:24:38.412Z,7.17
2022-10-29T10:27:30.109Z,7.83
2022-10-29T10:30:05.260Z,7.47
2022-10-29T10:32:33.643Z,7.73
2022-10-29T10:35:02.939Z,7.63
2022-10-29T10:37:34.309Z,7.10
2022-10-29T10:40:06.096Z,7.77
2022-10-29T10:42:40.988Z,7.60
2022-10-29T10:45:29.789Z,7.67
2022-10-29T10:47:59.387Z,8.30
2022-10-29T10:50:34.628Z,8.10
2022-10-29T10:53:17.609Z,7.47
2022-10-29T10:56:00.659Z,7.40
2022-10-29T10:58:34.817Z,8.33
2022-10-29T11:01:25.621Z,8.80
2022-10-29T11:09:39.907Z,8.50
2022-10-29T11:12:25.691Z,8.30
2022-10-29T11:14:59.840Z,7.57
2022-10-29T11:35:46.796Z,6.57
2022-10-29T11:38:21.426Z,6.80
2022-10-29T11:40:59.095Z,6.53
2022-10-29T11:43:28.064Z,6.43
2022-10-29T11:49:24.199Z,6.77
2022-10-29T11:52:35.565Z,6.87
2022-10-29T11:55:19.151Z,6.83
2022-10-29T11:57:54.071Z,7.40
2022-10-29T12:00:24.855Z,6.67
2022-10-29T12:03:15.607Z,6.70
2022-10-29T12:06:14.206Z,6.03
2022-10-29T12:09:01.638Z,5.77
2022-10-29T12:11:51.252Z,6.00
2022-10-29T12:14:41.241Z,6.20
2022-10-29T12:17:33.328Z,6.40
2022-10-29T12:20:10.088Z,6.00
2022-10-29T12:22:53.533Z,5.73
2022-10-29T12:25:32.667Z,7.28
2022-10-29T12:28:22.237Z,6.17
2022-10-29T12:30:58.859Z,6.63
2022-10-29T12:33:37.968Z,6.03
2022-10-29T12:36:18.560Z,6.47
2022-10-29T12:38:53.688Z,5.90
2022-10-29T12:41:28.392Z,5.30
2022-10-29T12:44:10.926Z,5.83
2022-10-29T12:46:47.682Z,4.93
2022-10-29T12:49:33.730Z,6.13
2022-10-29T12:52:44.255Z,4.90
2022-10-29T12:55:15.821Z,5.60
2022-10-29T12:57:45.002Z,5.93
2022-10-29T13:00:25.063Z,5.73
2022-10-29T13:02:55.764Z,5.93
2022-10-29T13:05:44.582Z,5.80
2022-10-29T13:08:21.868Z,6.17
2022-10-29T13:10:52.112Z,6.13
2022-10-29T13:13:23.979Z,6.60
2022-10-29T13:16:00.277Z,6.60
2022-10-29T13:18:47.476Z,6.37
2022-10-29T13:21:53.150Z,5.93
2022-10-29T13:24:21.903Z,6.60
2022-10-29T13:27:26.537Z,6.33
2022-10-29T13:30:16.607Z,17.10
2022-10-29T13:32:45.116Z,7.37
2022-10-29T13:35:19.151Z,6.27
2022-10-29T13:37:47.043Z,10.57
2022-10-29T13:40:23.823Z,9.90
2022-10-29T13:43:19.601Z,6.70
2022-10-29T13:46:02.150Z,6.07
2022-10-29T13:48:35.525Z,6.77
2022-10-29T13:51:08.292Z,7.53
2022-10-29T13:54:25.046Z,6.20
2022-10-29T13:57:00.026Z,7.67
2022-10-29T13:59:52.796Z,7.00
2022-10-29T14:02:48.788Z,7.30
2022-10-29T14:05:32.697Z,7.50
2022-10-29T14:08:19.342Z,7.13
2022-10-29T14:10:49.988Z,7.77
2022-10-29T14:13:23.624Z,8.20
2022-10-29T14:16:02.711Z,7.70
2022-10-29T14:18:37.276Z,7.73
2022-10-29T14:21:18.556Z,7.40
2022-10-29T14:24:02.982Z,7.43
2022-10-29T14:26:34.506Z,7.90
2022-10-29T14:29:19.904Z,7.47
2022-10-29T14:31:51.964Z,7.67
2022-10-29T14:34:27.234Z,8.00
2022-10-29T14:37:20.372Z,8.07
2022-10-29T14:39:58.576Z,8.00
2022-10-29T14:42:33.873Z,7.83
2022-10-29T14:45:18.508Z,8.93
2022-10-29T14:47:54.605Z,8.23
2022-10-29T14:50:26.399Z,11.60
2022-10-29T14:52:58.653Z,11.80
2022-10-29T14:55:37.636Z,16.43
2022-10-29T14:58:05.892Z,15.40
2022-10-29T15:00:37.597Z,18.67
2022-10-29T15:03:08.149Z,17.93
2022-10-29T15:05:40.923Z,17.03
2022-10-29T15:08:11.745Z,12.17
2022-10-29T15:11:00.354Z,18.90
2022-10-29T15:13:27.878Z,14.00
2022-10-29T15:16:05.118Z,10.80
2022-10-29T17:20:37.597Z,15.27
2022-10-29T17:23:05.963Z,15.53
2022-10-29T17:25:34.991Z,15.10
2022-10-29T17:28:04.303Z,15.40
2022-10-29T17:30:32.471Z,15.30
2022-10-29T17:33:00.862Z,15.90
2022-10-29T17:35:29.052Z,16.60
2022-10-29T17:37:57.244Z,15.53
2022-10-29T17:40:26.728Z,17.03
2022-10-29T17:42:55.955Z,17.67
2022-10-29T17:45:24.138Z,17.90
2022-10-29T17:47:56.485Z,16.97
2022-10-29T17:50:25.821Z,16.40
2022-10-29T17:52:54.819Z,15.33
2022-10-29T17:55:25.890Z,15.27
2022-10-29T17:57:56.243Z,14.90
2022-10-29T18:00:24.415Z,15.40
2022-10-29T18:02:53.064Z,15.57
2022-10-29T18:05:21.619Z,14.27
2022-10-29T18:07:50.866Z,15.37
2022-10-29T18:10:19.912Z,16.03
2022-10-29T18:12:48.567Z,16.50
2022-10-29T18:15:19.948Z,16.67
2022-10-29T18:17:49.920Z,17.67
2022-10-29T18:20:19.151Z,27.50
2022-10-29T18:22:49.479Z,67.53
2022-10-29T18:25:20.144Z,125.33
2022-10-29T18:27:47.893Z,93.63
2022-10-29T18:30:16.623Z,25.50
2022-10-29T18:32:46.054Z,18.07
2022-10-29T18:35:13.978Z,15.83
2022-10-29T18:37:42.422Z,142.50
2022-10-29T18:40:10.879Z,84.10
2022-10-29T18:42:38.819Z,51.20
2022-10-29T18:45:08.383Z,45.47
2022-10-29T18:47:36.715Z,33.27
2022-10-29T18:50:04.665Z,24.60
2022-10-29T18:52:32.495Z,29.40
2022-10-29T18:55:00.548Z,40.47
2022-10-29T18:57:28.122Z,54.10
2022-10-29T18:59:56.153Z,36.47
2022-10-29T19:02:24.270Z,41.17
2022-10-29T19:04:53.458Z,25.87
2022-10-29T19:07:21.505Z,37.73
2022-10-29T19:09:52.825Z,42.87
2022-10-29T19:12:20.760Z,32.07
2022-10-29T19:14:48.628Z,26.40
2022-10-29T19:17:16.500Z,31.00
2022-10-29T19:19:44.343Z,24.70
2022-10-29T19:22:12.395Z,20.40
2022-10-29T19:24:40.093Z,34.73
2022-10-29T19:27:08.513Z,25.77
2022-10-29T19:29:36.752Z,19.80
2022-10-29T19:32:05.412Z,18.07
2022-10-29T19:34:34.462Z,40.73
2022-10-29T19:37:02.319Z,40.53
2022-10-29T19:39:33.966Z,19.80
2022-10-29T19:42:01.844Z,27.40
2022-10-29T19:44:30.899Z,20.37
2022-10-29T19:46:59.863Z,20.50
2022-10-29T19:49:28.054Z,20.27
2022-10-29T19:51:57.881Z,17.33
2022-10-29T19:54:26.239Z,17.47
2022-10-29T19:56:55.142Z,18.67
2022-10-29T19:59:38.444Z,19.67
2022-10-29T20:02:06.521Z,25.70
2022-10-29T20:04:34.314Z,24.07
2022-10-29T20:07:02.333Z,22.67
2022-10-29T20:09:30.845Z,19.00
2022-10-29T20:11:58.791Z,19.60
2022-10-29T20:14:29.164Z,17.33
2022-10-29T20:16:57.190Z,17.67
2022-10-29T20:19:25.955Z,17.40
2022-10-29T20:21:54.340Z,19.37
2022-10-29T20:24:26.667Z,17.77
2022-10-29T20:26:57.145Z,33.60
